Andrews Air Force Base
KADW : now visible

Airfield :











YOU CAN JOIN US ON...

 
LOGIN :

Register | Disclaimer

   EN    FR    IT 

 









Legend :    VFR   Marginal VFR   IFR   Intensive IFR   Very Intensive IFR
Visi :
Ceiling :
>= 8 km
>= 3000ft
5 to 8 km
1000 to 3000 ft
1500m to 5 km
500 to 1000 ft
800 to 1500m
200 to 500 ft
< 800m
< 200 ft
Symbols :   Thunderstorms  Fog  Heavy snow  Heavy precipitations  Wind > 20 kt







- Airport Elevation : 280 ft


KADW - Andrews Air Force Base

CURRENT METAR :
  • 152056Z AUTO 21011KT 10SM FEW170 16/04 A2965 RMK AO2 SLP047 T01610038 55012 $

EXPIRED METARs :
  • 151956Z AUTO 20015KT 10SM FEW190 17/04 A2964 RMK AO2 SLP044 T01660040 $
  • 151856Z AUTO 21017KT 10SM FEW200 18/04 A2966 RMK AO2 PK WND 22026/1758 SLP050 T01770043 $

TAF AMD TAF KADW
Valid from the 15 at 20:00 until the 16 at 23:00 UTC


152022Z 1520/1623 23012G18KT 9999 FEW180 QNH2963INS
TEMPO 1520/1523 23015G25KT
BECMG 1604/1605 32009KT 9999 OVC070 620709 QNH2980INS
BECMG 1613/1614 34009KT 9999 SCT100 BKN160 QNH2990INS TX19/1520Z TN01/1611Z
KZDC FIR / North America



MET'MAP, your aeronautical weather chart ! - Copyright ORBIFLY December 2007 - Disclaimer

ORBIFLY MET'MAP TEAM :

Programming & Development : Alexandra Zaïnal
Concept & Development : Baudouin d'Aumeries
Co-Development & Prog : Marc-Olivier Méhu
Technical & hardware support : Manuel Goepfert

Contact : metmap@orbifly.com




SOURCES & CREDITS :

   NOAA       Earth
Advisory